sensor_id;sensor_type;location;lat;lon;timestamp;pressure;altitude;pressure_sealevel;temperature;humidity
48622;BME280;34421;48.944;9.460;2023-06-24T00:02:14;99364.00;;;17.37;68.69
48622;BME280;34421;48.944;9.460;2023-06-24T00:04:40;99361.31;;;17.37;68.65
48622;BME280;34421;48.944;9.460;2023-06-24T00:07:05;99364.22;;;17.36;68.59
48622;BME280;34421;48.944;9.460;2023-06-24T00:09:31;99369.50;;;17.30;68.36
48622;BME280;34421;48.944;9.460;2023-06-24T00:11:57;99371.22;;;17.25;68.76
48622;BME280;34421;48.944;9.460;2023-06-24T00:14:26;99365.97;;;17.18;69.20
48622;BME280;34421;48.944;9.460;2023-06-24T00:16:53;99362.91;;;17.15;68.87
48622;BME280;34421;48.944;9.460;2023-06-24T00:19:24;99363.72;;;17.15;68.98
48622;BME280;34421;48.944;9.460;2023-06-24T00:21:50;99367.03;;;17.17;68.70
48622;BME280;34421;48.944;9.460;2023-06-24T00:24:17;99360.09;;;17.09;68.94
48622;BME280;34421;48.944;9.460;2023-06-24T00:26:44;99369.91;;;17.04;69.06
48622;BME280;34421;48.944;9.460;2023-06-24T00:29:09;99369.56;;;17.00;68.93
48622;BME280;34421;48.944;9.460;2023-06-24T00:31:35;99366.38;;;16.92;69.25
48622;BME280;34421;48.944;9.460;2023-06-24T00:34:00;99368.94;;;16.87;70.03
48622;BME280;34421;48.944;9.460;2023-06-24T00:36:25;99371.03;;;16.84;69.65
48622;BME280;34421;48.944;9.460;2023-06-24T00:38:51;99370.69;;;16.81;69.77
48622;BME280;34421;48.944;9.460;2023-06-24T00:41:17;99368.19;;;16.79;70.35
48622;BME280;34421;48.944;9.460;2023-06-24T00:43:46;99362.00;;;16.79;69.84
48622;BME280;34421;48.944;9.460;2023-06-24T00:46:11;99364.91;;;16.77;69.68
48622;BME280;34421;48.944;9.460;2023-06-24T00:48:39;99368.28;;;16.73;70.07
48622;BME280;34421;48.944;9.460;2023-06-24T00:51:04;99364.97;;;16.71;69.58
48622;BME280;34421;48.944;9.460;2023-06-24T00:53:29;99359.84;;;16.69;70.64
48622;BME280;34421;48.944;9.460;2023-06-24T00:55:56;99355.28;;;16.70;70.40
48622;BME280;34421;48.944;9.460;2023-06-24T00:58:28;99349.31;;;16.68;70.19
48622;BME280;34421;48.944;9.460;2023-06-24T01:00:57;99356.41;;;16.62;69.94
48622;BME280;34421;48.944;9.460;2023-06-24T01:03:26;99358.75;;;16.58;70.06
48622;BME280;34421;48.944;9.460;2023-06-24T01:05:52;99357.13;;;16.57;69.92
48622;BME280;34421;48.944;9.460;2023-06-24T01:08:18;99356.97;;;16.52;70.05
48622;BME280;34421;48.944;9.460;2023-06-24T01:10:48;99355.34;;;16.51;69.69
48622;BME280;34421;48.944;9.460;2023-06-24T01:13:15;99358.22;;;16.50;69.28
48622;BME280;34421;48.944;9.460;2023-06-24T01:15:40;99349.22;;;16.44;69.57
48622;BME280;34421;48.944;9.460;2023-06-24T01:31:33;99344.63;;;16.14;70.33
48622;BME280;34421;48.944;9.460;2023-06-24T01:36:54;99346.13;;;16.10;69.84
48622;BME280;34421;48.944;9.460;2023-06-24T01:39:22;99347.38;;;16.08;70.40
48622;BME280;34421;48.944;9.460;2023-06-24T01:41:57;99350.53;;;16.05;69.89
48622;BME280;34421;48.944;9.460;2023-06-24T01:44:25;99355.53;;;16.01;70.51
48622;BME280;34421;48.944;9.460;2023-06-24T01:46:55;99352.25;;;15.99;70.45
48622;BME280;34421;48.944;9.460;2023-06-24T01:49:23;99347.94;;;15.98;70.62
48622;BME280;34421;48.944;9.460;2023-06-24T01:51:50;99341.94;;;15.96;70.45
48622;BME280;34421;48.944;9.460;2023-06-24T01:54:17;99335.53;;;15.97;70.62
48622;BME280;34421;48.944;9.460;2023-06-24T01:56:48;99335.75;;;15.95;70.59
48622;BME280;34421;48.944;9.460;2023-06-24T01:59:16;99333.72;;;15.91;70.51
48622;BME280;34421;48.944;9.460;2023-06-24T02:01:43;99332.09;;;15.90;70.75
48622;BME280;34421;48.944;9.460;2023-06-24T02:04:10;99334.78;;;15.90;70.91
48622;BME280;34421;48.944;9.460;2023-06-24T02:06:38;99343.91;;;15.89;70.62
48622;BME280;34421;48.944;9.460;2023-06-24T02:09:05;99345.38;;;15.85;70.69
48622;BME280;34421;48.944;9.460;2023-06-24T02:11:33;99336.75;;;15.83;71.25
48622;BME280;34421;48.944;9.460;2023-06-24T02:14:01;99333.66;;;15.79;70.92
48622;BME280;34421;48.944;9.460;2023-06-24T02:16:29;99334.72;;;15.78;71.30
48622;BME280;34421;48.944;9.460;2023-06-24T02:18:55;99333.06;;;15.77;71.40
48622;BME280;34421;48.944;9.460;2023-06-24T02:21:21;99322.78;;;15.74;71.81
48622;BME280;34421;48.944;9.460;2023-06-24T02:23:48;99327.78;;;15.70;71.87
48622;BME280;34421;48.944;9.460;2023-06-24T02:26:15;99329.22;;;15.66;71.38
48622;BME280;34421;48.944;9.460;2023-06-24T02:28:44;99328.63;;;15.64;71.47
48622;BME280;34421;48.944;9.460;2023-06-24T02:31:12;99327.22;;;15.62;71.49
48622;BME280;34421;48.944;9.460;2023-06-24T02:33:37;99328.84;;;15.63;71.93
48622;BME280;34421;48.944;9.460;2023-06-24T02:36:03;99322.66;;;15.62;71.41
48622;BME280;34421;48.944;9.460;2023-06-24T02:38:28;99325.56;;;15.61;71.54
48622;BME280;34421;48.944;9.460;2023-06-24T02:40:54;99328.31;;;15.54;71.67
48622;BME280;34421;48.944;9.460;2023-06-24T02:43:19;99325.47;;;15.49;72.40
48622;BME280;34421;48.944;9.460;2023-06-24T02:45:46;99317.28;;;15.44;72.35
48622;BME280;34421;48.944;9.460;2023-06-24T02:48:12;99329.28;;;15.41;72.47
48622;BME280;34421;48.944;9.460;2023-06-24T02:50:38;99326.41;;;15.36;72.87
48622;BME280;34421;48.944;9.460;2023-06-24T02:53:07;99328.72;;;15.33;72.18
48622;BME280;34421;48.944;9.460;2023-06-24T02:55:33;99333.47;;;15.31;72.50
48622;BME280;34421;48.944;9.460;2023-06-24T02:57:59;99333.94;;;15.27;72.20
48622;BME280;34421;48.944;9.460;2023-06-24T03:00:26;99333.31;;;15.25;72.84
48622;BME280;34421;48.944;9.460;2023-06-24T03:02:51;99336.44;;;15.22;72.31
48622;BME280;34421;48.944;9.460;2023-06-24T03:05:17;99332.75;;;15.17;72.06
48622;BME280;34421;48.944;9.460;2023-06-24T03:07:44;99331.38;;;15.14;72.28
48622;BME280;34421;48.944;9.460;2023-06-24T03:10:10;99333.63;;;15.11;71.71
48622;BME280;34421;48.944;9.460;2023-06-24T03:12:36;99333.06;;;15.09;72.13
48622;BME280;34421;48.944;9.460;2023-06-24T03:15:01;99334.06;;;15.08;72.70
48622;BME280;34421;48.944;9.460;2023-06-24T03:17:27;99333.69;;;15.04;71.66
48622;BME280;34421;48.944;9.460;2023-06-24T03:19:52;99339.50;;;15.01;72.55
48622;BME280;34421;48.944;9.460;2023-06-24T03:22:18;99341.56;;;14.99;72.68
48622;BME280;34421;48.944;9.460;2023-06-24T03:24:43;99346.94;;;14.99;72.20
48622;BME280;34421;48.944;9.460;2023-06-24T03:27:09;99356.41;;;15.01;71.97
48622;BME280;34421;48.944;9.460;2023-06-24T03:29:34;99354.78;;;15.00;72.40
48622;BME280;34421;48.944;9.460;2023-06-24T03:31:59;99354.41;;;14.97;71.98
48622;BME280;34421;48.944;9.460;2023-06-24T03:34:25;99354.41;;;14.97;72.47
48622;BME280;34421;48.944;9.460;2023-06-24T03:36:52;99361.38;;;14.98;72.44
48622;BME280;34421;48.944;9.460;2023-06-24T03:39:19;99360.97;;;15.01;72.61
48622;BME280;34421;48.944;9.460;2023-06-24T03:41:45;99358.06;;;15.02;72.90
48622;BME280;34421;48.944;9.460;2023-06-24T03:44:11;99372.91;;;15.05;72.74
48622;BME280;34421;48.944;9.460;2023-06-24T03:46:36;99368.75;;;15.09;72.51
48622;BME280;34421;48.944;9.460;2023-06-24T03:49:01;99377.41;;;15.11;72.99
48622;BME280;34421;48.944;9.460;2023-06-24T03:51:27;99381.47;;;15.14;72.49
48622;BME280;34421;48.944;9.460;2023-06-24T03:53:52;99379.41;;;15.16;72.09
48622;BME280;34421;48.944;9.460;2023-06-24T03:56:17;99376.53;;;15.17;72.08
48622;BME280;34421;48.944;9.460;2023-06-24T03:58:43;99376.09;;;15.20;73.00
48622;BME280;34421;48.944;9.460;2023-06-24T04:01:09;99385.50;;;15.30;72.11
48622;BME280;34421;48.944;9.460;2023-06-24T04:03:34;99384.63;;;15.36;72.44
48622;BME280;34421;48.944;9.460;2023-06-24T04:06:00;99392.44;;;15.37;72.68
48622;BME280;34421;48.944;9.460;2023-06-24T04:08:26;99394.50;;;15.42;72.03
48622;BME280;34421;48.944;9.460;2023-06-24T04:10:57;99395.25;;;15.49;71.96
48622;BME280;34421;48.944;9.460;2023-06-24T04:13:25;99401.41;;;15.56;71.70
48622;BME280;34421;48.944;9.460;2023-06-24T04:15:50;99401.53;;;15.61;72.10
48622;BME280;34421;48.944;9.460;2023-06-24T04:18:16;99399.66;;;15.68;71.50
48622;BME280;34421;48.944;9.460;2023-06-24T04:20:41;99410.13;;;15.77;71.20
48622;BME280;34421;48.944;9.460;2023-06-24T04:23:06;99414.38;;;15.84;71.34
48622;BME280;34421;48.944;9.460;2023-06-24T04:25:34;99414.91;;;15.93;70.62
48622;BME280;34421;48.944;9.460;2023-06-24T04:27:59;99415.06;;;15.98;71.40
48622;BME280;34421;48.944;9.460;2023-06-24T04:30:25;99407.75;;;16.05;70.51
48622;BME280;34421;48.944;9.460;2023-06-24T04:32:50;99412.22;;;16.11;70.77
48622;BME280;34421;48.944;9.460;2023-06-24T04:35:15;99411.50;;;16.23;70.29
48622;BME280;34421;48.944;9.460;2023-06-24T04:37:40;99407.25;;;16.33;70.74
48622;BME280;34421;48.944;9.460;2023-06-24T04:40:06;99412.91;;;16.44;70.63
48622;BME280;34421;48.944;9.460;2023-06-24T04:42:32;99413.41;;;16.52;70.07
48622;BME280;34421;48.944;9.460;2023-06-24T04:44:57;99418.84;;;16.64;70.29
48622;BME280;34421;48.944;9.460;2023-06-24T04:47:23;99428.63;;;16.77;69.90
48622;BME280;34421;48.944;9.460;2023-06-24T04:49:48;99428.78;;;16.82;70.21
48622;BME280;34421;48.944;9.460;2023-06-24T04:52:13;99423.09;;;16.90;69.60
48622;BME280;34421;48.944;9.460;2023-06-24T04:54:39;99420.53;;;16.95;69.90
48622;BME280;34421;48.944;9.460;2023-06-24T04:57:08;99422.06;;;17.03;69.46
48622;BME280;34421;48.944;9.460;2023-06-24T04:59:33;99423.25;;;17.07;69.58
48622;BME280;34421;48.944;9.460;2023-06-24T05:01:59;99425.28;;;17.12;69.17
48622;BME280;34421;48.944;9.460;2023-06-24T05:04:24;99426.44;;;17.16;69.75
48622;BME280;34421;48.944;9.460;2023-06-24T05:06:49;99430.91;;;17.22;69.36
48622;BME280;34421;48.944;9.460;2023-06-24T05:09:14;99433.41;;;17.35;69.53
48622;BME280;34421;48.944;9.460;2023-06-24T05:11:40;99432.00;;;17.44;69.08
48622;BME280;34421;48.944;9.460;2023-06-24T05:14:06;99427.94;;;17.53;69.14
48622;BME280;34421;48.944;9.460;2023-06-24T05:16:31;99423.25;;;17.61;68.86
48622;BME280;34421;48.944;9.460;2023-06-24T05:18:57;99417.88;;;17.72;68.40
48622;BME280;34421;48.944;9.460;2023-06-24T05:21:22;99429.13;;;17.81;68.64
48622;BME280;34421;48.944;9.460;2023-06-24T05:23:47;99429.38;;;17.91;68.41
48622;BME280;34421;48.944;9.460;2023-06-24T05:26:13;99429.94;;;18.05;67.97
48622;BME280;34421;48.944;9.460;2023-06-24T05:28:39;99427.69;;;18.37;67.67
48622;BME280;34421;48.944;9.460;2023-06-24T05:31:04;99425.94;;;18.83;65.35
48622;BME280;34421;48.944;9.460;2023-06-24T05:33:30;99424.63;;;19.15;64.68
48622;BME280;34421;48.944;9.460;2023-06-24T05:35:55;99422.03;;;19.37;63.26
48622;BME280;34421;48.944;9.460;2023-06-24T05:38:21;99428.59;;;19.57;63.23
48622;BME280;34421;48.944;9.460;2023-06-24T05:40:46;99422.44;;;19.62;63.10
48622;BME280;34421;48.944;9.460;2023-06-24T05:43:11;99426.03;;;19.51;62.66
48622;BME280;34421;48.944;9.460;2023-06-24T05:45:37;99439.03;;;19.54;62.74
48622;BME280;34421;48.944;9.460;2023-06-24T05:48:05;99432.09;;;19.58;62.19
48622;BME280;34421;48.944;9.460;2023-06-24T05:50:30;99436.53;;;19.64;62.33
48622;BME280;34421;48.944;9.460;2023-06-24T05:52:56;99424.28;;;19.73;61.97
48622;BME280;34421;48.944;9.460;2023-06-24T05:55:21;99430.66;;;19.84;61.63
48622;BME280;34421;48.944;9.460;2023-06-24T05:57:46;99429.47;;;19.97;61.76
48622;BME280;34421;48.944;9.460;2023-06-24T06:00:12;99425.03;;;20.08;61.51
48622;BME280;34421;48.944;9.460;2023-06-24T06:02:38;99430.41;;;20.24;61.60
48622;BME280;34421;48.944;9.460;2023-06-24T06:05:03;99426.25;;;20.39;61.42
48622;BME280;34421;48.944;9.460;2023-06-24T06:07:29;99424.50;;;20.49;61.45
48622;BME280;34421;48.944;9.460;2023-06-24T06:09:54;99424.53;;;20.71;60.48
48622;BME280;34421;48.944;9.460;2023-06-24T06:12:19;99417.66;;;21.77;58.37
48622;BME280;34421;48.944;9.460;2023-06-24T06:14:44;99403.66;;;24.63;51.93
48622;BME280;34421;48.944;9.460;2023-06-24T06:17:11;99409.44;;;27.93;44.75
48622;BME280;34421;48.944;9.460;2023-06-24T06:19:36;99414.19;;;30.85;37.72
48622;BME280;34421;48.944;9.460;2023-06-24T06:22:05;99406.63;;;33.29;32.32
48622;BME280;34421;48.944;9.460;2023-06-24T06:24:30;99398.03;;;35.55;29.87
48622;BME280;34421;48.944;9.460;2023-06-24T06:26:57;99397.41;;;37.31;27.27
48622;BME280;34421;48.944;9.460;2023-06-24T06:29:23;99387.50;;;38.75;25.12
48622;BME280;34421;48.944;9.460;2023-06-24T06:31:48;99392.47;;;39.57;24.15
48622;BME280;34421;48.944;9.460;2023-06-24T06:34:13;99390.94;;;40.63;22.02
48622;BME280;34421;48.944;9.460;2023-06-24T06:36:39;99396.50;;;41.64;21.09
48622;BME280;34421;48.944;9.460;2023-06-24T06:39:04;99392.56;;;40.16;20.63
48622;BME280;34421;48.944;9.460;2023-06-24T06:41:30;99395.75;;;40.10;22.27
48622;BME280;34421;48.944;9.460;2023-06-24T06:43:55;99391.13;;;40.29;21.46
48622;BME280;34421;48.944;9.460;2023-06-24T06:46:20;99388.78;;;41.08;20.63
48622;BME280;34421;48.944;9.460;2023-06-24T06:48:46;99391.66;;;42.76;18.83
48622;BME280;34421;48.944;9.460;2023-06-24T06:51:12;99393.84;;;44.32;17.41
48622;BME280;34421;48.944;9.460;2023-06-24T06:53:37;99390.47;;;45.20;16.49
48622;BME280;34421;48.944;9.460;2023-06-24T06:56:03;99397.44;;;45.08;16.35
48622;BME280;34421;48.944;9.460;2023-06-24T06:58:30;99394.50;;;45.19;16.68
48622;BME280;34421;48.944;9.460;2023-06-24T07:00:55;99397.88;;;45.88;15.52
48622;BME280;34421;48.944;9.460;2023-06-24T07:03:21;99386.97;;;46.80;14.49
48622;BME280;34421;48.944;9.460;2023-06-24T07:05:46;99388.66;;;46.34;14.50
48622;BME280;34421;48.944;9.460;2023-06-24T07:08:12;99385.84;;;46.54;14.44
48622;BME280;34421;48.944;9.460;2023-06-24T07:10:37;99385.94;;;47.11;14.03
48622;BME280;34421;48.944;9.460;2023-06-24T07:13:02;99385.25;;;47.23;14.04
48622;BME280;34421;48.944;9.460;2023-06-24T07:15:28;99389.72;;;47.40;13.38
48622;BME280;34421;48.944;9.460;2023-06-24T07:17:53;99392.59;;;46.80;14.29
48622;BME280;34421;48.944;9.460;2023-06-24T07:20:20;99390.00;;;47.10;14.25
48622;BME280;34421;48.944;9.460;2023-06-24T07:22:46;99393.66;;;47.96;13.68
48622;BME280;34421;48.944;9.460;2023-06-24T07:25:12;99385.25;;;48.54;13.11
48622;BME280;34421;48.944;9.460;2023-06-24T07:27:37;99378.94;;;49.04;12.05
48622;BME280;34421;48.944;9.460;2023-06-24T07:30:04;99377.63;;;49.22;12.13
48622;BME280;34421;48.944;9.460;2023-06-24T07:32:30;99381.13;;;48.84;12.12
48622;BME280;34421;48.944;9.460;2023-06-24T07:34:55;99378.56;;;49.02;11.90
48622;BME280;34421;48.944;9.460;2023-06-24T07:37:20;99375.69;;;49.57;12.27
48622;BME280;34421;48.944;9.460;2023-06-24T07:39:46;99370.41;;;50.07;11.64
48622;BME280;34421;48.944;9.460;2023-06-24T07:42:11;99369.88;;;49.86;11.10
48622;BME280;34421;48.944;9.460;2023-06-24T07:44:36;99370.03;;;49.57;12.11
48622;BME280;34421;48.944;9.460;2023-06-24T07:47:04;99369.66;;;49.93;11.70
48622;BME280;34421;48.944;9.460;2023-06-24T07:49:30;99366.97;;;50.47;11.15
48622;BME280;34421;48.944;9.460;2023-06-24T07:51:55;99373.50;;;50.78;10.81
48622;BME280;34421;48.944;9.460;2023-06-24T07:54:20;99364.06;;;50.37;11.23
48622;BME280;34421;48.944;9.460;2023-06-24T07:56:46;99363.78;;;50.45;10.91
48622;BME280;34421;48.944;9.460;2023-06-24T07:59:11;99364.56;;;49.76;11.17
48622;BME280;34421;48.944;9.460;2023-06-24T08:01:36;99361.00;;;49.62;11.28
48622;BME280;34421;48.944;9.460;2023-06-24T08:04:02;99355.41;;;49.71;11.40
48622;BME280;34421;48.944;9.460;2023-06-24T08:06:27;99354.31;;;50.04;11.13
48622;BME280;34421;48.944;9.460;2023-06-24T08:08:53;99359.31;;;50.34;10.51
48622;BME280;34421;48.944;9.460;2023-06-24T08:11:18;99360.94;;;49.75;11.26
48622;BME280;34421;48.944;9.460;2023-06-24T08:13:43;99360.41;;;49.29;11.39
48622;BME280;34421;48.944;9.460;2023-06-24T08:16:10;99363.53;;;48.51;11.98
48622;BME280;34421;48.944;9.460;2023-06-24T08:18:35;99354.81;;;49.89;11.25
48622;BME280;34421;48.944;9.460;2023-06-24T08:21:01;99350.34;;;50.36;11.07
48622;BME280;34421;48.944;9.460;2023-06-24T08:23:26;99351.75;;;49.97;10.92
48622;BME280;34421;48.944;9.460;2023-06-24T08:25:52;99356.94;;;49.85;11.43
48622;BME280;34421;48.944;9.460;2023-06-24T08:28:17;99348.56;;;49.94;11.07
48622;BME280;34421;48.944;9.460;2023-06-24T08:30:42;99349.53;;;50.13;11.02
48622;BME280;34421;48.944;9.460;2023-06-24T08:33:08;99347.28;;;49.61;11.20
48622;BME280;34421;48.944;9.460;2023-06-24T08:35:33;99355.53;;;48.91;11.58
48622;BME280;34421;48.944;9.460;2023-06-24T08:37:58;99353.47;;;46.23;13.31
48622;BME280;34421;48.944;9.460;2023-06-24T08:40:24;99349.44;;;44.61;14.38
48622;BME280;34421;48.944;9.460;2023-06-24T08:42:49;99348.03;;;45.65;13.70
48622;BME280;34421;48.944;9.460;2023-06-24T08:45:14;99350.44;;;46.77;13.03
48622;BME280;34421;48.944;9.460;2023-06-24T08:47:40;99341.16;;;47.49;12.37
48622;BME280;34421;48.944;9.460;2023-06-24T08:50:11;99340.53;;;48.78;11.84
48622;BME280;34421;48.944;9.460;2023-06-24T08:52:42;99338.66;;;49.64;10.69
48622;BME280;34421;48.944;9.460;2023-06-24T08:55:10;99335.03;;;50.11;10.77
48622;BME280;34421;48.944;9.460;2023-06-24T08:57:38;99333.41;;;50.45;9.89
48622;BME280;34421;48.944;9.460;2023-06-24T09:00:04;99328.59;;;50.11;10.43
48622;BME280;34421;48.944;9.460;2023-06-24T09:02:35;99335.56;;;49.24;10.80
48622;BME280;34421;48.944;9.460;2023-06-24T09:05:06;99332.09;;;49.55;10.83
48622;BME280;34421;48.944;9.460;2023-06-24T09:07:31;99329.97;;;49.59;10.80
48622;BME280;34421;48.944;9.460;2023-06-24T09:09:57;99333.19;;;50.17;10.28
48622;BME280;34421;48.944;9.460;2023-06-24T09:12:24;99334.00;;;49.70;10.62
48622;BME280;34421;48.944;9.460;2023-06-24T09:14:50;99336.41;;;49.46;10.18
48622;BME280;34421;48.944;9.460;2023-06-24T09:17:16;99336.66;;;49.39;10.12
48622;BME280;34421;48.944;9.460;2023-06-24T09:19:43;99333.59;;;48.95;10.43
48622;BME280;34421;48.944;9.460;2023-06-24T09:22:09;99335.38;;;48.18;10.29
48622;BME280;34421;48.944;9.460;2023-06-24T09:24:45;99325.06;;;46.77;11.45
48622;BME280;34421;48.944;9.460;2023-06-24T09:27:12;99321.56;;;45.62;12.44
48622;BME280;34421;48.944;9.460;2023-06-24T09:29:40;99316.06;;;44.32;13.37
48622;BME280;34421;48.944;9.460;2023-06-24T09:32:06;99311.63;;;44.39;13.50
48622;BME280;34421;48.944;9.460;2023-06-24T09:34:31;99300.22;;;45.65;12.56
48622;BME280;34421;48.944;9.460;2023-06-24T09:36:58;99309.88;;;43.17;14.50
48622;BME280;34421;48.944;9.460;2023-06-24T09:39:25;99312.91;;;40.91;16.20
48622;BME280;34421;48.944;9.460;2023-06-24T09:42:00;99306.34;;;40.51;16.69
48622;BME280;34421;48.944;9.460;2023-06-24T09:44:26;99303.94;;;39.84;17.78
48622;BME280;34421;48.944;9.460;2023-06-24T09:46:52;99296.16;;;39.18;18.18
48622;BME280;34421;48.944;9.460;2023-06-24T09:49:18;99311.25;;;38.50;18.56
48622;BME280;34421;48.944;9.460;2023-06-24T09:51:48;99304.59;;;38.88;18.48
48622;BME280;34421;48.944;9.460;2023-06-24T09:54:15;99299.50;;;41.65;16.25
48622;BME280;34421;48.944;9.460;2023-06-24T09:56:47;99301.78;;;42.42;15.66
48622;BME280;34421;48.944;9.460;2023-06-24T09:59:13;99290.00;;;42.86;15.24
48622;BME280;34421;48.944;9.460;2023-06-24T10:01:41;99279.81;;;43.69;14.06
48622;BME280;34421;48.944;9.460;2023-06-24T10:04:07;99281.31;;;44.57;13.82
48622;BME280;34421;48.944;9.460;2023-06-24T10:06:33;99266.97;;;45.60;13.13
48622;BME280;34421;48.944;9.460;2023-06-24T10:09:00;99268.03;;;45.69;13.11
48622;BME280;34421;48.944;9.460;2023-06-24T10:11:26;99268.59;;;46.24;11.79
48622;BME280;34421;48.944;9.460;2023-06-24T10:13:52;99274.75;;;46.39;12.44
48622;BME280;34421;48.944;9.460;2023-06-24T10:16:18;99279.97;;;43.48;14.57
48622;BME280;34421;48.944;9.460;2023-06-24T10:18:44;99275.50;;;43.02;14.84
48622;BME280;34421;48.944;9.460;2023-06-24T10:21:10;99270.56;;;43.24;14.70
48622;BME280;34421;48.944;9.460;2023-06-24T10:23:40;99268.22;;;43.15;14.61
48622;BME280;34421;48.944;9.460;2023-06-24T10:26:10;99264.03;;;42.82;15.01
48622;BME280;34421;48.944;9.460;2023-06-24T10:29:15;99249.13;;;44.31;13.02
48622;BME280;34421;48.944;9.460;2023-06-24T10:34:43;99246.72;;;44.64;12.97
48622;BME280;34421;48.944;9.460;2023-06-24T10:37:25;99243.59;;;45.63;11.74
48622;BME280;34421;48.944;9.460;2023-06-24T10:39:55;99243.09;;;43.57;13.36
48622;BME280;34421;48.944;9.460;2023-06-24T10:45:01;99238.41;;;43.39;13.69
48622;BME280;34421;48.944;9.460;2023-06-24T10:47:28;99237.53;;;43.50;13.83
48622;BME280;34421;48.944;9.460;2023-06-24T10:49:54;99228.59;;;43.65;13.90
48622;BME280;34421;48.944;9.460;2023-06-24T10:52:20;99223.38;;;44.05;13.64
48622;BME280;34421;48.944;9.460;2023-06-24T10:54:50;99217.75;;;44.05;13.43
48622;BME280;34421;48.944;9.460;2023-06-24T10:57:21;99217.06;;;43.98;13.43
48622;BME280;34421;48.944;9.460;2023-06-24T10:59:48;99215.19;;;43.39;14.31
48622;BME280;34421;48.944;9.460;2023-06-24T11:02:15;99205.00;;;43.63;13.63
48622;BME280;34421;48.944;9.460;2023-06-24T11:07:12;99202.22;;;43.59;13.61
48622;BME280;34421;48.944;9.460;2023-06-24T11:09:39;99202.34;;;43.86;13.71
48622;BME280;34421;48.944;9.460;2023-06-24T11:12:06;99196.59;;;44.01;12.95
48622;BME280;34421;48.944;9.460;2023-06-24T11:14:33;99195.19;;;43.40;13.89
48622;BME280;34421;48.944;9.460;2023-06-24T11:17:03;99194.03;;;40.80;16.25
48622;BME280;34421;48.944;9.460;2023-06-24T11:19:30;99188.84;;;38.50;17.63
48622;BME280;34421;48.944;9.460;2023-06-24T11:21:59;99194.28;;;36.25;20.12
48622;BME280;34421;48.944;9.460;2023-06-24T11:24:26;99205.00;;;34.52;21.45
48622;BME280;34421;48.944;9.460;2023-06-24T11:26:51;99202.19;;;33.47;22.96
48622;BME280;34421;48.944;9.460;2023-06-24T11:29:16;99199.66;;;33.05;22.60
48622;BME280;34421;48.944;9.460;2023-06-24T11:31:42;99199.41;;;33.22;22.36
48622;BME280;34421;48.944;9.460;2023-06-24T11:34:08;99192.97;;;33.18;22.08
48622;BME280;34421;48.944;9.460;2023-06-24T11:36:35;99194.69;;;33.10;21.55
48622;BME280;34421;48.944;9.460;2023-06-24T11:39:01;99195.72;;;33.06;21.79
48622;BME280;34421;48.944;9.460;2023-06-24T11:41:26;99195.56;;;32.90;23.03
48622;BME280;34421;48.944;9.460;2023-06-24T11:43:53;99192.53;;;31.87;25.03
48622;BME280;34421;48.944;9.460;2023-06-24T11:46:29;99189.72;;;30.80;26.43
48622;BME280;34421;48.944;9.460;2023-06-24T11:49:07;99192.00;;;30.17;27.92
48622;BME280;34421;48.944;9.460;2023-06-24T11:51:36;99189.41;;;30.04;27.85
48622;BME280;34421;48.944;9.460;2023-06-24T11:54:03;99183.78;;;30.17;28.05
48622;BME280;34421;48.944;9.460;2023-06-24T11:56:39;99175.84;;;29.81;28.37
48622;BME280;34421;48.944;9.460;2023-06-24T11:59:06;99178.09;;;29.96;28.04
48622;BME280;34421;48.944;9.460;2023-06-24T12:01:32;99167.78;;;30.19;27.48
48622;BME280;34421;48.944;9.460;2023-06-24T12:04:00;99171.81;;;30.48;26.13
48622;BME280;34421;48.944;9.460;2023-06-24T12:06:26;99162.13;;;30.51;25.12
48622;BME280;34421;48.944;9.460;2023-06-24T12:08:51;99156.56;;;30.77;24.36
48622;BME280;34421;48.944;9.460;2023-06-24T12:11:16;99159.66;;;30.84;25.85
48622;BME280;34421;48.944;9.460;2023-06-24T12:13:42;99154.13;;;30.93;25.18
48622;BME280;34421;48.944;9.460;2023-06-24T12:16:07;99148.34;;;30.68;25.88
48622;BME280;34421;48.944;9.460;2023-06-24T12:18:32;99153.41;;;29.96;27.16
48622;BME280;34421;48.944;9.460;2023-06-24T12:20:58;99145.47;;;29.20;28.60
48622;BME280;34421;48.944;9.460;2023-06-24T12:23:23;99149.00;;;28.36;30.03
48622;BME280;34421;48.944;9.460;2023-06-24T12:25:48;99148.47;;;28.79;26.78
48622;BME280;34421;48.944;9.460;2023-06-24T12:28:14;99149.25;;;28.71;28.89
48622;BME280;34421;48.944;9.460;2023-06-24T12:30:39;99150.50;;;28.96;26.67
48622;BME280;34421;48.944;9.460;2023-06-24T12:33:04;99138.81;;;28.81;28.73
48622;BME280;34421;48.944;9.460;2023-06-24T12:35:30;99143.56;;;28.00;30.40
48622;BME280;34421;48.944;9.460;2023-06-24T12:37:56;99141.28;;;27.79;30.14
48622;BME280;34421;48.944;9.460;2023-06-24T12:40:21;99140.47;;;27.65;30.47
48622;BME280;34421;48.944;9.460;2023-06-24T12:42:46;99131.28;;;27.61;30.88
48622;BME280;34421;48.944;9.460;2023-06-24T12:45:12;99131.69;;;28.04;28.90
48622;BME280;34421;48.944;9.460;2023-06-24T12:47:37;99133.81;;;28.30;27.84
48622;BME280;34421;48.944;9.460;2023-06-24T12:50:02;99128.50;;;28.33;28.44
48622;BME280;34421;48.944;9.460;2023-06-24T12:52:31;99122.34;;;28.73;27.25
48622;BME280;34421;48.944;9.460;2023-06-24T12:54:57;99118.59;;;29.00;28.17
48622;BME280;34421;48.944;9.460;2023-06-24T12:57:22;99112.56;;;29.20;27.29
48622;BME280;34421;48.944;9.460;2023-06-24T12:59:47;99114.22;;;29.39;26.84
48622;BME280;34421;48.944;9.460;2023-06-24T13:02:13;99109.94;;;29.64;26.70
48622;BME280;34421;48.944;9.460;2023-06-24T13:04:38;99104.41;;;29.46;27.56
48622;BME280;34421;48.944;9.460;2023-06-24T13:07:04;99102.34;;;28.72;28.81
48622;BME280;34421;48.944;9.460;2023-06-24T13:09:30;99106.13;;;28.09;30.33
48622;BME280;34421;48.944;9.460;2023-06-24T13:11:55;99111.09;;;27.70;30.50
48622;BME280;34421;48.944;9.460;2023-06-24T13:14:20;99104.63;;;27.53;29.10
48622;BME280;34421;48.944;9.460;2023-06-24T13:16:46;99091.91;;;27.34;31.31
48622;BME280;34421;48.944;9.460;2023-06-24T13:19:11;99099.09;;;27.02;31.52
48622;BME280;34421;48.944;9.460;2023-06-24T13:21:37;99105.63;;;26.74;32.70